createdAt,value
2018-10-02T00:00:50.475Z,7.70
2018-10-02T00:03:24.802Z,7.50
2018-10-02T00:05:59.102Z,7.50
2018-10-02T00:08:33.387Z,7.60
2018-10-02T00:13:14.590Z,7.70
2018-10-02T00:15:48.781Z,7.50
2018-10-02T00:18:22.994Z,7.40
2018-10-02T00:20:57.298Z,7.50
2018-10-02T00:23:31.629Z,7.50
2018-10-02T00:26:06.046Z,7.50
2018-10-02T00:28:40.439Z,7.50
2018-10-02T00:31:14.690Z,7.60
2018-10-02T00:33:49.153Z,7.50
2018-10-02T00:36:23.442Z,7.40
2018-10-02T00:38:57.689Z,7.50
2018-10-02T00:41:32.025Z,7.40
2018-10-02T00:44:06.358Z,7.30
2018-10-02T00:46:40.697Z,7.40
2018-10-02T00:49:15.034Z,7.30
2018-10-02T00:51:49.361Z,7.40
2018-10-02T00:54:23.616Z,7.40
2018-10-02T00:56:57.865Z,7.40
2018-10-02T00:59:32.145Z,7.50
2018-10-02T01:02:06.476Z,7.50
2018-10-02T01:04:40.678Z,7.40
2018-10-02T01:07:15.056Z,7.40
2018-10-02T01:09:49.362Z,7.50
2018-10-02T01:12:23.690Z,7.50
2018-10-02T01:14:57.934Z,7.50
2018-10-02T01:17:32.423Z,7.40
2018-10-02T01:20:07.115Z,7.40
2018-10-02T01:22:41.399Z,7.40
2018-10-02T01:25:15.601Z,7.50
2018-10-02T01:27:49.914Z,7.40
2018-10-02T01:30:24.134Z,7.40
2018-10-02T01:32:58.522Z,7.40
2018-10-02T01:35:32.777Z,7.40
2018-10-02T01:38:07.073Z,7.30
2018-10-02T01:40:41.450Z,7.30
2018-10-02T01:43:15.929Z,7.40
2018-10-02T01:45:50.316Z,7.30
2018-10-02T01:48:24.473Z,7.30
2018-10-02T01:50:58.893Z,7.30
2018-10-02T01:53:33.138Z,7.20
2018-10-02T01:56:07.571Z,7.20
2018-10-02T01:58:41.749Z,7.20
2018-10-02T02:01:16.074Z,7.30
2018-10-02T02:03:50.290Z,7.30
2018-10-02T02:06:24.734Z,7.20
2018-10-02T02:08:58.981Z,7.20
2018-10-02T02:11:33.314Z,7.30
2018-10-02T02:14:07.557Z,7.30
2018-10-02T02:16:41.893Z,7.20
2018-10-02T02:19:16.177Z,7.30
2018-10-02T02:21:50.350Z,7.20
2018-10-02T02:24:24.534Z,7.20
2018-10-02T02:26:58.989Z,7.10
2018-10-02T02:29:33.293Z,7.20
2018-10-02T02:32:07.674Z,7.20
2018-10-02T02:34:41.957Z,7.30
2018-10-02T02:37:16.378Z,7.30
2018-10-02T02:39:50.782Z,7.20
2018-10-02T02:42:25.087Z,7.30
2018-10-02T02:44:59.665Z,7.40
2018-10-02T02:47:39.426Z,7.30
2018-10-02T02:50:19.137Z,7.40
2018-10-02T02:52:56.965Z,7.30
2018-10-02T02:55:31.317Z,7.30
2018-10-02T02:58:05.622Z,7.30
2018-10-02T03:00:39.933Z,7.40
2018-10-02T03:03:14.200Z,7.40
2018-10-02T03:05:48.421Z,7.40
2018-10-02T03:08:22.741Z,7.40
2018-10-02T03:10:57.103Z,7.40
2018-10-02T03:13:31.446Z,7.30
2018-10-02T03:16:05.898Z,7.30
2018-10-02T03:18:40.249Z,7.30
2018-10-02T03:21:14.554Z,7.40
2018-10-02T03:23:48.864Z,7.40
2018-10-02T03:26:23.143Z,7.30
2018-10-02T03:28:57.368Z,7.40
2018-10-02T03:31:31.762Z,7.30
2018-10-02T03:34:06.112Z,7.40
2018-10-02T03:36:40.405Z,7.40
2018-10-02T03:39:14.687Z,7.30
2018-10-02T03:41:48.990Z,7.40
2018-10-02T03:44:23.314Z,7.40
2018-10-02T03:46:57.552Z,7.50
2018-10-02T03:49:31.773Z,7.40
2018-10-02T03:52:06.135Z,7.40
2018-10-02T03:54:40.430Z,7.40
2018-10-02T03:57:14.733Z,7.50
2018-10-02T03:59:49.178Z,7.50
2018-10-02T04:02:23.444Z,7.50
2018-10-02T04:04:57.622Z,7.40
2018-10-02T04:07:31.874Z,7.50
2018-10-02T04:10:06.066Z,7.50
2018-10-02T04:12:40.333Z,7.60
2018-10-02T04:15:14.505Z,7.60
2018-10-02T04:17:48.859Z,7.60
2018-10-02T04:20:23.106Z,7.60
2018-10-02T04:22:57.286Z,7.60
2018-10-02T04:25:31.610Z,7.60
2018-10-02T04:28:06.293Z,7.60
2018-10-02T04:30:40.521Z,7.60
2018-10-02T04:33:14.809Z,7.60
2018-10-02T04:35:49.085Z,7.70
2018-10-02T04:38:23.257Z,7.70
2018-10-02T04:40:57.706Z,7.70
2018-10-02T04:43:31.887Z,7.70
2018-10-02T04:46:06.330Z,7.70
2018-10-02T04:48:40.668Z,7.80
2018-10-02T04:51:15.165Z,7.70
2018-10-02T04:53:49.762Z,7.80
2018-10-02T04:56:23.992Z,8.30
2018-10-02T04:58:58.177Z,7.70
2018-10-02T05:01:32.492Z,7.70
2018-10-02T05:04:06.801Z,7.80
2018-10-02T05:06:41.246Z,7.70
2018-10-02T05:09:15.563Z,7.80
2018-10-02T05:11:49.782Z,7.70
2018-10-02T05:14:24.086Z,7.80
2018-10-02T05:16:58.443Z,7.80
2018-10-02T05:19:32.771Z,7.70
2018-10-02T05:22:07.035Z,7.80
2018-10-02T05:24:41.475Z,7.80
2018-10-02T05:27:15.783Z,7.90
2018-10-02T05:29:50.002Z,7.90
2018-10-02T05:32:24.190Z,7.90
2018-10-02T05:34:58.626Z,7.90
2018-10-02T05:37:32.907Z,8.00
2018-10-02T05:40:07.104Z,7.90
2018-10-02T05:42:41.465Z,8.00
2018-10-02T05:45:15.782Z,8.00
2018-10-02T05:47:50.095Z,8.00
2018-10-02T05:50:24.470Z,8.00
2018-10-02T05:52:58.766Z,8.00
2018-10-02T05:55:33.103Z,8.00
2018-10-02T05:58:07.503Z,8.00
2018-10-02T06:00:41.776Z,8.10
2018-10-02T06:03:15.997Z,8.10
2018-10-02T06:05:50.294Z,8.00
2018-10-02T06:08:24.606Z,8.10
2018-10-02T06:10:58.817Z,8.20
2018-10-02T06:13:33.102Z,8.10
2018-10-02T06:16:07.358Z,8.20
2018-10-02T06:18:41.642Z,8.20
2018-10-02T06:21:16.015Z,8.10
2018-10-02T06:23:50.188Z,8.20
2018-10-02T06:26:24.486Z,8.30
2018-10-02T06:28:58.755Z,8.20
2018-10-02T06:31:33.174Z,8.30
2018-10-02T06:34:07.479Z,8.30
2018-10-02T06:36:42.062Z,8.30
2018-10-02T06:39:16.393Z,8.30
2018-10-02T06:41:50.634Z,8.30
2018-10-02T06:44:24.983Z,8.30
2018-10-02T06:46:59.196Z,8.20
2018-10-02T06:49:33.502Z,8.30
2018-10-02T06:52:08.045Z,8.30
2018-10-02T06:54:42.133Z,8.30
2018-10-02T06:57:16.386Z,8.30
2018-10-02T06:59:50.594Z,8.30
2018-10-02T07:02:24.879Z,8.30
2018-10-02T07:04:59.246Z,8.40
2018-10-02T07:07:33.576Z,8.40
2018-10-02T07:10:08.156Z,8.40
2018-10-02T07:12:42.447Z,8.40
2018-10-02T07:15:16.754Z,8.40
2018-10-02T07:17:50.927Z,8.50
2018-10-02T07:20:25.186Z,8.50
2018-10-02T07:22:59.406Z,8.50
2018-10-02T07:25:33.817Z,8.60
2018-10-02T07:28:08.135Z,8.50
2018-10-02T07:30:42.591Z,8.60
2018-10-02T07:33:16.982Z,8.50
2018-10-02T07:35:51.258Z,8.60
2018-10-02T07:38:25.587Z,8.60
2018-10-02T07:40:59.782Z,8.60
2018-10-02T07:43:34.164Z,8.50
2018-10-02T07:46:08.599Z,8.60
2018-10-02T07:48:42.822Z,8.60
2018-10-02T07:51:17.147Z,8.60
2018-10-02T07:53:51.412Z,8.60
2018-10-02T07:56:25.687Z,8.60
2018-10-02T07:58:59.934Z,8.60
2018-10-02T08:01:34.338Z,8.70
2018-10-02T08:04:08.628Z,8.70
2018-10-02T08:06:42.987Z,8.70
2018-10-02T08:09:36.504Z,8.60
2018-10-02T08:12:10.978Z,8.60
2018-10-02T08:14:45.164Z,8.70
2018-10-02T08:17:19.335Z,8.70
2018-10-02T08:19:53.756Z,8.70
2018-10-02T08:22:28.100Z,8.70
2018-10-02T08:25:02.274Z,8.70
2018-10-02T08:27:36.554Z,8.70
2018-10-02T08:30:10.970Z,8.70
2018-10-02T08:32:45.361Z,8.70
2018-10-02T08:35:19.630Z,8.70
2018-10-02T08:37:54.433Z,8.70
2018-10-02T08:40:28.786Z,8.70
2018-10-02T08:43:02.969Z,8.70
2018-10-02T08:45:37.278Z,8.70
2018-10-02T08:48:11.611Z,8.70
2018-10-02T08:50:45.909Z,8.70
2018-10-02T08:53:20.239Z,8.70
2018-10-02T08:55:54.518Z,8.70
2018-10-02T08:58:28.766Z,8.70
2018-10-02T09:01:03.183Z,8.70
2018-10-02T09:03:37.430Z,8.70
2018-10-02T09:06:11.606Z,8.80
2018-10-02T09:08:45.931Z,8.80
2018-10-02T09:11:20.235Z,8.80
2018-10-02T09:13:54.459Z,8.80
2018-10-02T09:16:28.661Z,8.90
2018-10-02T09:19:02.900Z,8.90
2018-10-02T09:21:37.315Z,8.80
2018-10-02T09:24:11.587Z,8.90
2018-10-02T09:26:45.862Z,8.90
2018-10-02T09:29:20.247Z,8.90
2018-10-02T09:31:59.963Z,8.90
2018-10-02T09:34:39.435Z,8.90
2018-10-02T09:37:19.075Z,8.90
2018-10-02T09:39:58.888Z,9.00
2018-10-02T09:42:38.619Z,9.00
2018-10-02T09:45:12.995Z,9.00
2018-10-02T09:47:47.327Z,9.00
2018-10-02T09:50:21.655Z,9.00
2018-10-02T09:52:55.990Z,9.10
2018-10-02T09:55:30.255Z,9.10
2018-10-02T09:58:04.596Z,9.00
2018-10-02T10:00:44.285Z,9.10
2018-10-02T10:03:18.699Z,9.10
2018-10-02T10:05:52.977Z,9.20
2018-10-02T10:08:27.378Z,9.20
2018-10-02T10:11:01.661Z,9.10
2018-10-02T10:13:36.234Z,9.20
2018-10-02T10:16:10.538Z,9.20
2018-10-02T10:18:44.694Z,9.30
2018-10-02T10:21:19.279Z,9.20
2018-10-02T10:23:53.816Z,9.30
2018-10-02T10:26:28.052Z,9.30
2018-10-02T10:29:02.318Z,9.30
2018-10-02T10:31:36.434Z,9.30
2018-10-02T10:34:10.696Z,9.40
2018-10-02T10:36:45.025Z,9.40
2018-10-02T10:39:19.354Z,9.40
2018-10-02T10:41:53.644Z,9.30
2018-10-02T10:44:27.834Z,9.40
2018-10-02T10:47:02.059Z,9.50
2018-10-02T10:49:36.158Z,9.50
2018-10-02T10:52:10.397Z,9.50
2018-10-02T10:54:56.195Z,9.40
2018-10-02T10:57:30.474Z,9.40
2018-10-02T11:00:05.124Z,9.50
2018-10-02T11:02:39.345Z,9.50
2018-10-02T11:05:13.761Z,9.60
2018-10-02T11:07:48.096Z,9.60
2018-10-02T11:10:22.310Z,9.60
2018-10-02T11:12:56.646Z,9.60
2018-10-02T11:15:32.206Z,9.60
2018-10-02T11:18:06.525Z,9.60
2018-10-02T11:20:40.811Z,9.60
2018-10-02T11:23:15.114Z,9.70
2018-10-02T11:25:49.560Z,9.70
2018-10-02T11:28:23.904Z,9.70
2018-10-02T11:30:58.582Z,9.80
2018-10-02T11:33:32.961Z,9.80
2018-10-02T11:36:07.478Z,9.80
2018-10-02T11:38:41.725Z,9.70
2018-10-02T11:41:16.071Z,9.80
2018-10-02T11:43:50.462Z,9.80
2018-10-02T11:46:24.647Z,9.90
2018-10-02T11:48:59.051Z,9.80
2018-10-02T11:51:33.346Z,9.90
2018-10-02T11:54:07.734Z,9.90
2018-10-02T11:56:42.077Z,9.90
2018-10-02T11:59:16.394Z,10.00
2018-10-02T12:01:50.618Z,10.00
2018-10-02T12:04:25.064Z,10.00
2018-10-02T12:06:59.270Z,10.10
2018-10-02T12:09:33.479Z,10.10
2018-10-02T12:12:08.070Z,10.20
2018-10-02T12:14:42.419Z,10.10
2018-10-02T12:17:16.678Z,10.20
2018-10-02T12:19:51.119Z,10.20
2018-10-02T12:22:25.187Z,10.30
2018-10-02T12:24:59.717Z,10.30
2018-10-02T12:27:34.159Z,10.40
2018-10-02T12:30:08.487Z,10.30
2018-10-02T12:32:42.858Z,10.30
2018-10-02T12:35:17.172Z,10.40
2018-10-02T12:37:51.548Z,10.40
2018-10-02T12:40:25.718Z,10.40
2018-10-02T12:43:00.012Z,10.40
2018-10-02T12:45:34.314Z,10.30
2018-10-02T12:48:08.610Z,10.30
2018-10-02T12:50:43.031Z,10.40
2018-10-02T12:53:17.348Z,10.40
2018-10-02T12:55:51.663Z,10.40
2018-10-02T12:58:25.880Z,10.50
2018-10-02T13:01:00.295Z,10.50
2018-10-02T13:03:34.527Z,10.50
2018-10-02T13:06:14.490Z,10.60
2018-10-02T13:08:48.878Z,10.60
2018-10-02T13:11:23.114Z,10.60
2018-10-02T13:13:57.262Z,10.70
2018-10-02T13:24:40.885Z,10.70
2018-10-02T13:27:15.438Z,10.90
2018-10-02T13:29:58.676Z,10.90
2018-10-02T13:32:33.026Z,10.90
2018-10-02T13:35:07.350Z,10.90
2018-10-02T13:37:41.701Z,10.90
2018-10-02T13:40:15.958Z,11.00
2018-10-02T13:42:50.259Z,11.00
2018-10-02T13:45:24.702Z,11.00
2018-10-02T13:47:59.164Z,11.10
2018-10-02T13:50:33.369Z,11.10
2018-10-02T13:53:07.668Z,11.20
2018-10-02T13:55:42.053Z,11.30
2018-10-02T13:58:16.583Z,11.30
2018-10-02T14:00:50.994Z,11.30
2018-10-02T14:03:25.251Z,11.40
2018-10-02T14:05:59.574Z,11.40
2018-10-02T14:08:33.942Z,11.40
2018-10-02T14:11:08.105Z,11.40
2018-10-02T14:13:42.419Z,11.40
2018-10-02T14:16:16.570Z,11.50
2018-10-02T14:18:50.858Z,11.50
2018-10-02T14:21:25.083Z,11.60
2018-10-02T14:23:59.430Z,11.60
2018-10-02T14:26:33.719Z,11.70
2018-10-02T14:29:08.274Z,11.80
2018-10-02T14:31:42.603Z,11.80
2018-10-02T14:34:16.994Z,11.80
2018-10-02T14:36:51.464Z,11.80
2018-10-02T14:39:25.847Z,11.80
2018-10-02T14:42:00.141Z,11.80
2018-10-02T14:44:36.579Z,11.80
2018-10-02T14:47:11.006Z,11.90
2018-10-02T14:49:45.334Z,11.90
2018-10-02T14:52:29.701Z,11.90
2018-10-02T14:55:05.203Z,11.90
2018-10-02T14:57:39.465Z,12.00
2018-10-02T15:00:13.875Z,12.00
2018-10-02T15:02:48.462Z,12.00
2018-10-02T15:05:22.742Z,12.00
2018-10-02T15:07:57.130Z,12.00
2018-10-02T15:10:31.442Z,12.00
2018-10-02T15:13:05.878Z,12.10
2018-10-02T15:15:40.172Z,12.10
2018-10-02T15:18:14.871Z,12.10
2018-10-02T15:20:49.211Z,12.10
2018-10-02T15:23:23.570Z,12.20
2018-10-02T15:25:57.938Z,12.20
2018-10-02T15:28:32.195Z,9.80
2018-10-02T15:31:06.430Z,12.30
2018-10-02T15:33:40.670Z,12.30
2018-10-02T15:36:14.989Z,12.30
2018-10-02T15:38:49.245Z,12.40
2018-10-02T15:41:23.448Z,12.40
2018-10-02T15:43:57.732Z,12.40
2018-10-02T15:46:34.304Z,12.50
2018-10-02T15:49:08.620Z,12.50
2018-10-02T15:51:43.011Z,12.50
2018-10-02T15:54:17.367Z,12.50
2018-10-02T15:56:51.658Z,12.50
2018-10-02T15:59:25.919Z,12.60
2018-10-02T16:02:00.338Z,12.60
2018-10-02T16:04:34.612Z,12.60
2018-10-02T16:07:09.119Z,12.60
2018-10-02T16:09:43.500Z,12.70
2018-10-02T16:12:17.831Z,12.70
2018-10-02T16:14:52.246Z,12.70
2018-10-02T16:17:26.452Z,12.80
2018-10-02T16:20:00.827Z,12.80
2018-10-02T16:22:35.080Z,12.80
2018-10-02T16:25:09.283Z,12.80
2018-10-02T16:27:43.489Z,12.80
2018-10-02T16:30:17.802Z,12.90
2018-10-02T16:32:52.134Z,12.90
2018-10-02T16:35:26.406Z,12.90
2018-10-02T16:38:00.971Z,12.80
2018-10-02T16:40:35.266Z,12.90
2018-10-02T16:43:09.466Z,12.90
2018-10-02T16:45:43.847Z,12.90
2018-10-02T16:48:18.110Z,12.90
2018-10-02T16:50:52.342Z,13.00
2018-10-02T16:53:26.749Z,12.90
2018-10-02T16:56:01.096Z,12.90
2018-10-02T16:58:35.323Z,13.00
2018-10-02T17:01:09.830Z,13.00
2018-10-02T17:03:44.173Z,13.00
2018-10-02T17:06:18.443Z,13.10
2018-10-02T17:08:52.643Z,13.10
2018-10-02T17:11:26.954Z,13.10
2018-10-02T17:14:01.307Z,13.20
2018-10-02T17:16:35.959Z,13.10
2018-10-02T17:19:10.258Z,13.20
2018-10-02T17:21:44.642Z,13.20
2018-10-02T17:24:19.096Z,13.20
2018-10-02T17:26:53.479Z,13.20
2018-10-02T17:29:27.699Z,13.20
2018-10-02T17:32:02.054Z,13.20
2018-10-02T17:34:36.257Z,13.20
2018-10-02T17:37:10.442Z,13.20
2018-10-02T17:39:44.731Z,13.20
2018-10-02T17:42:19.071Z,13.20
2018-10-02T17:44:53.387Z,13.20
2018-10-02T17:47:27.796Z,13.20
2018-10-02T17:50:06.550Z,13.20
2018-10-02T17:52:46.190Z,13.20
2018-10-02T17:55:20.585Z,13.20
2018-10-02T17:57:54.934Z,13.20
2018-10-02T18:00:29.130Z,13.20
2018-10-02T18:03:03.442Z,13.20
2018-10-02T18:05:37.734Z,13.20
2018-10-02T18:08:12.073Z,13.20
2018-10-02T18:10:46.507Z,13.20
2018-10-02T18:13:20.855Z,13.20
2018-10-02T18:15:55.167Z,13.20
2018-10-02T18:18:29.624Z,13.20
2018-10-02T18:21:03.922Z,13.20
2018-10-02T18:23:38.349Z,13.10
2018-10-02T18:26:12.539Z,13.10
2018-10-02T18:28:46.792Z,13.10
2018-10-02T18:31:42.564Z,13.10
2018-10-02T18:34:23.790Z,13.10
2018-10-02T18:36:58.112Z,13.00
2018-10-02T18:39:32.793Z,13.00
2018-10-02T18:42:15.531Z,13.00
2018-10-02T18:44:49.896Z,13.00
2018-10-02T18:47:24.123Z,12.90
2018-10-02T18:49:58.338Z,12.90
2018-10-02T18:52:32.559Z,12.90
2018-10-02T18:55:07.002Z,12.90
2018-10-02T18:57:41.356Z,12.80
2018-10-02T19:00:15.691Z,12.80
2018-10-02T19:02:50.070Z,12.80
2018-10-02T19:05:32.097Z,12.80
2018-10-02T19:08:06.470Z,12.80
2018-10-02T19:10:40.739Z,12.80
2018-10-02T19:13:15.019Z,12.80
2018-10-02T19:15:54.479Z,12.80
2018-10-02T19:18:29.282Z,12.80
2018-10-02T19:21:04.060Z,12.70
2018-10-02T19:23:39.715Z,12.80
2018-10-02T19:26:19.705Z,12.70
2018-10-02T19:28:54.014Z,12.80
2018-10-02T19:31:33.738Z,12.70
2018-10-02T19:34:08.377Z,12.70
2018-10-02T19:36:43.335Z,12.70
2018-10-02T19:39:22.645Z,12.70
2018-10-02T19:41:57.764Z,12.60
2018-10-02T19:44:32.202Z,12.60
2018-10-02T19:47:06.530Z,12.60
2018-10-02T19:49:40.809Z,12.50
2018-10-02T19:52:16.225Z,12.60
2018-10-02T19:54:50.559Z,12.60
2018-10-02T19:57:24.762Z,12.50
2018-10-02T19:59:59.041Z,12.50
2018-10-02T20:02:33.335Z,12.40
2018-10-02T20:05:07.666Z,12.40
2018-10-02T20:07:42.055Z,12.40
2018-10-02T20:10:16.723Z,12.40
2018-10-02T20:12:51.440Z,12.40
2018-10-02T20:15:25.823Z,12.40
2018-10-02T20:18:00.083Z,12.30
2018-10-02T20:20:34.434Z,12.30
2018-10-02T20:23:09.395Z,12.30
2018-10-02T20:25:44.207Z,12.30
2018-10-02T20:28:19.611Z,12.30
2018-10-02T20:30:55.202Z,12.30
2018-10-02T20:33:31.027Z,12.20
2018-10-02T20:36:09.222Z,12.20
2018-10-02T20:38:44.475Z,12.20
2018-10-02T20:41:19.007Z,12.30
2018-10-02T20:43:55.599Z,12.20
2018-10-02T20:46:31.283Z,12.20
2018-10-02T20:49:05.629Z,12.20
2018-10-02T20:51:41.957Z,12.20
2018-10-02T20:54:17.147Z,12.20
2018-10-02T20:56:51.555Z,12.20
2018-10-02T20:59:25.739Z,12.10
2018-10-02T21:02:00.002Z,12.10
2018-10-02T21:04:34.426Z,12.20
2018-10-02T21:07:08.884Z,12.20
2018-10-02T21:09:42.930Z,12.20
2018-10-02T21:12:17.227Z,12.20
2018-10-02T21:14:51.646Z,12.20
2018-10-02T21:17:26.018Z,12.20
2018-10-02T21:20:00.498Z,12.20
2018-10-02T21:22:34.664Z,12.20
2018-10-02T21:25:08.832Z,12.20
2018-10-02T21:27:43.099Z,12.20
2018-10-02T21:30:17.294Z,12.10
2018-10-02T21:32:51.754Z,12.10
2018-10-02T21:35:25.943Z,12.10
2018-10-02T21:38:00.234Z,12.10
2018-10-02T21:40:34.615Z,12.00
2018-10-02T21:43:09.009Z,11.90
2018-10-02T21:45:43.171Z,12.00
2018-10-02T21:48:17.507Z,11.90
2018-10-02T21:50:51.806Z,11.90
2018-10-02T21:53:26.143Z,11.90
2018-10-02T21:56:00.379Z,11.80
2018-10-02T21:58:34.806Z,11.80
2018-10-02T22:01:09.151Z,11.70
2018-10-02T22:03:43.390Z,11.70
2018-10-02T22:06:17.714Z,11.60
2018-10-02T22:08:52.074Z,11.60
2018-10-02T22:11:26.291Z,11.60
2018-10-02T22:14:00.567Z,11.60
2018-10-02T22:16:34.879Z,11.60
2018-10-02T22:19:09.157Z,11.60
2018-10-02T22:21:43.510Z,11.50
2018-10-02T22:24:17.698Z,11.50
2018-10-02T22:26:52.106Z,11.50
2018-10-02T22:29:26.298Z,11.50
2018-10-02T22:32:00.658Z,11.50
2018-10-02T22:34:34.998Z,11.50
2018-10-02T22:37:09.299Z,11.50
2018-10-02T22:39:43.561Z,11.50
2018-10-02T22:42:18.051Z,11.50
2018-10-02T22:44:52.275Z,11.50
2018-10-02T22:47:26.657Z,11.50
2018-10-02T22:50:00.844Z,11.40
2018-10-02T22:52:35.302Z,11.40
2018-10-02T22:55:09.499Z,11.50
2018-10-02T22:57:43.855Z,11.50
2018-10-02T23:00:18.034Z,11.40
2018-10-02T23:02:52.333Z,11.40
2018-10-02T23:05:26.743Z,11.40
2018-10-02T23:08:01.117Z,11.40
2018-10-02T23:10:35.404Z,11.40
2018-10-02T23:13:09.714Z,11.40
2018-10-02T23:15:43.907Z,11.30
2018-10-02T23:18:18.245Z,11.30
2018-10-02T23:20:52.499Z,11.30
2018-10-02T23:23:26.723Z,11.30
2018-10-02T23:26:01.135Z,11.20
2018-10-02T23:28:35.520Z,11.10
2018-10-02T23:31:09.846Z,11.10
2018-10-02T23:33:44.114Z,11.10
2018-10-02T23:36:18.342Z,11.10
2018-10-02T23:38:52.663Z,11.10
2018-10-02T23:41:26.939Z,11.10
2018-10-02T23:44:01.199Z,11.10
2018-10-02T23:46:35.619Z,11.00
2018-10-02T23:49:09.951Z,11.00
2018-10-02T23:51:44.380Z,11.00
2018-10-02T23:54:18.763Z,11.00
2018-10-02T23:56:52.982Z,10.90
2018-10-02T23:59:27.286Z,10.90
